Aérodrome :
LOGIN :

S'inscrire | Disclaimer

   EN    FR    IT 

 










Légende :    VFR   VFR Marginal   IFR   IFR Intensif   IFR Très Intensif
Visi : 
Plafond : 
>= 8 km
>= 3000ft
5 à 8 km
1000 à 3000 ft
1500m à 5 km
500 à 1000 ft
800 à 1500m
200 à 500 ft
< 800m
< 200 ft
Symboles :   Orages  Brouillard  Fortes neiges  Fortes précipitations  Vent > 20 kt
SIGMETs :   Divers  Orages  Givrage  Turbulence  Onde Orograph.  Cendres Volcan.







- Altitude de l'aérodrome : 1363 ft


ETIC - Grafenwohr Army Air Field

DERNIER METAR :
  • 201956Z AUTO 00000KT 9999 CLR 15/06 A3017 RMK AO2 SLP210 T01490059 $

METARs EXPIRÉS :
  • 201856Z AUTO 00000KT 9999 CLR 18/06 A3017 RMK AO2 DZB1756E1758DZB01E04 SLP212 P0000 T01830055 $
  • 201756Z AUTO 00000KT 9999 CLR 23/05 A3016 RMK AO2 DZB54 SLP209 P0000 60000 T02300045 10279 20230 56011 $

TAF AMD TAF ETIC
Valide du 20 à 15h jusqu'au 21 à 20h UTC


201521Z 2015/2120 13009KT 9999 SKC QNH3016INS
BECMG 2111/2112 35006KT 9999 SCT045 QNH3013INS TX30/2114Z TN07/2104Z
Pas de NOTAMs connus pour ce terrain.



MET'MAP, la Météo Aéronautique d'un coup d'oeil ! - Copyright ORBIFLY Décembre 2007 - Disclaimer

ORBIFLY MET'MAP TEAM :

Programmation & Développement : Alexandra Zaïnal
Conception & Développement : Baudouin d'Aumeries
Co-Programmation & Développement : Marc-Olivier Méhu
Soutien technique & logistique : Manuel Goepfert

Contact : metmap@orbifly.com




SOURCES & CREDITS :

   NOAA